Time;durP1;ratioP1;P1;durP2;ratioP2;P2;SDS_P1;SDS_P2;PMS_P1;PMS_P2;Temp;Humidity;BMP_temperature;BMP_pressure;BME280_temperature;BME280_humidity;BME280_pressure;Samples;Min_cycle;Max_cycle;Signal;HPM_P1;HPM_P2
2022/07/26 00:02:17;;;;;;;;;;;;;;;;;;5051456;28;1234;-73
2022/07/26 00:04:43;;;;;;;;;;;;;;;;;;5051515;28;1914;-72
2022/07/26 00:07:09;;;;;;;;;;;;;;;;;;5050510;28;1262;-73
2022/07/26 00:09:35;;;;;;;;;;;;;;;;;;5051583;28;873;-72
2022/07/26 00:12:03;;;;;;;;;;;;;;;;;;5051004;28;1430;-72
2022/07/26 00:14:29;;;;;;;;;;;;;;;;;;5051565;28;1020;-72
2022/07/26 00:16:56;;;;;;;;;;;;;;;;;;5051787;28;941;-71
2022/07/26 00:19:22;;;;;;;;;;;;;;;;;;5051479;28;1115;-72
2022/07/26 00:22:32;;;;;;;;;;;;;;;;;;5050830;28;814;-71
2022/07/26 00:24:34;;;;;;;;;;;;;;;;;;5051344;28;1922;-72
2022/07/26 00:27:00;;;;;;;;;;;;;;;;;;5050461;28;1246;-70
2022/07/26 00:29:28;;;;;;;;;;;;;;;;;;5049860;28;1188;-72
2022/07/26 00:31:54;;;;;;;;;;;;;;;;;;5050909;28;987;-72
2022/07/26 00:34:20;;;;;;;;;;;;;;;;;;5051262;28;1341;-71
2022/07/26 00:36:46;;;;;;;;;;;;;;;;;;5051088;28;806;-71
2022/07/26 00:39:12;;;;;;;;;;;;;;;;;;5050890;28;944;-72
2022/07/26 00:41:39;;;;;;;;;;;;;;;;;;5050971;28;1324;-71
2022/07/26 00:44:05;;;;;;;;;;;;;;;;;;5050850;28;1914;-71
2022/07/26 00:46:32;;;;;;;;;;;;;;;;;;5051206;28;1083;-71
2022/07/26 00:48:59;;;;;;;;;;;;;;;;;;5051236;28;671;-71
2022/07/26 00:51:25;;;;;;;;;;;;;;;;;;5050646;28;1067;-71
2022/07/26 00:53:51;;;;;;;;;;;;;;;;;;5051287;28;1301;-71
2022/07/26 00:56:17;;;;;;;;;;;;;;;;;;5051557;28;1118;-70
2022/07/26 00:58:44;;;;;;;;;;;;;;;;;;5050957;28;1087;-71
2022/07/26 01:01:10;;;;;;;;;;;;;;;;;;5050721;28;712;-71
2022/07/26 01:03:37;;;;;;;;;;;;;;;;;;5050185;28;1979;-71
2022/07/26 01:06:04;;;;;;;;;;;;;;;;;;5050732;28;944;-71
2022/07/26 01:08:30;;;;;;;;;;;;;;;;;;5050766;28;1059;-70
2022/07/26 01:10:56;;;;;;;;;;;;;;;;;;5050643;28;771;-71
2022/07/26 01:13:23;;;;;;;;;;;;;;;;;;5049813;28;1314;-72
2022/07/26 01:15:50;;;;;;;;;;;;;;;;;;5049341;28;1749;-71
2022/07/26 01:18:16;;;;;;;;;;;;;;;;;;5050534;28;1142;-71
2022/07/26 01:20:43;;;;;;;;;;;;;;;;;;5050113;28;1618;-71
2022/07/26 01:23:11;;;;;;;;;;;;;;;;;;5050004;28;1926;-71
2022/07/26 01:25:37;;;;;;;;;;;;;;;;;;5050588;28;662;-72
2022/07/26 01:28:04;;;;;;;;;;;;;;;;;;5050443;28;997;-71
2022/07/26 01:30:31;;;;;;;;;;;;;;;;;;5050572;28;1055;-72
2022/07/26 01:32:57;;;;;;;;;;;;;;;;;;5049652;28;1365;-71
2022/07/26 01:35:23;;;;;;;;;;;;;;;;;;5048998;28;1234;-71
2022/07/26 01:37:49;;;;;;;;;;;;;;;;;;5050377;28;1251;-72
2022/07/26 01:40:17;;;;;;;;;;;;;;;;;;5050272;28;790;-73
2022/07/26 01:42:43;;;;;;;;;;;;;;;;;;5049985;28;1395;-71
2022/07/26 01:45:10;;;;;;;;;;;;;;;;;;5050261;28;1914;-71
2022/07/26 01:47:36;;;;;;;;;;;;;;;;;;5050157;28;1072;-71
2022/07/26 01:50:03;;;;;;;;;;;;;;;;;;5050378;28;1075;-73
2022/07/26 01:52:29;;;;;;;;;;;;;;;;;;5049497;28;1420;-73
2022/07/26 01:54:55;;;;;;;;;;;;;;;;;;5050143;28;1098;-71
2022/07/26 01:57:23;;;;;;;;;;;;;;;;;;5050103;28;864;-72
2022/07/26 01:59:49;;;;;;;;;;;;;;;;;;5048841;28;1121;-71
2022/07/26 02:02:15;;;;;;;;;;;;;;;;;;5048451;28;1405;-71
2022/07/26 02:05:00;;;;;;;;;;;;;;;;;;5050111;28;1918;-71
2022/07/26 02:07:26;;;;;;;;;;;;;;;;;;5049972;28;890;-71
2022/07/26 02:09:53;;;;;;;;;;;;;;;;;;5049906;28;1138;-72
2022/07/26 02:12:19;;;;;;;;;;;;;;;;;;5049240;28;1356;-71
2022/07/26 02:14:46;;;;;;;;;;;;;;;;;;5064261;22;3580;-74
2022/07/26 02:17:13;;;;;;;;;;;;;;;;;;5050180;28;1157;-75
2022/07/26 02:19:40;;;;;;;;;;;;;;;;;;5050382;28;1067;-75
2022/07/26 02:22:06;;;;;;;;;;;;;;;;;;5050005;28;1075;-75
2022/07/26 02:24:32;;;;;;;;;;;;;;;;;;5048861;28;1980;-73
2022/07/26 02:26:59;;;;;;;;;;;;;;;;;;5050162;28;1063;-75
2022/07/26 02:29:25;;;;;;;;;;;;;;;;;;5050105;28;1035;-76
2022/07/26 02:31:53;;;;;;;;;;;;;;;;;;5049916;28;909;-75
2022/07/26 02:34:19;;;;;;;;;;;;;;;;;;5052652;28;1310;-75
2022/07/26 02:36:45;;;;;;;;;;;;;;;;;;5054151;28;983;-75
2022/07/26 02:39:12;;;;;;;;;;;;;;;;;;5052638;28;1408;-74
2022/07/26 02:41:38;;;;;;;;;;;;;;;;;;5053042;28;691;-74
2022/07/26 02:44:04;;;;;;;;;;;;;;;;;;5053563;28;1914;-74
2022/07/26 02:46:31;;;;;;;;;;;;;;;;;;5053545;28;1247;-75
2022/07/26 02:48:59;;;;;;;;;;;;;;;;;;5052431;28;1326;-76
2022/07/26 02:51:25;;;;;;;;;;;;;;;;;;5053255;28;902;-75
2022/07/26 02:53:52;;;;;;;;;;;;;;;;;;5053586;28;802;-75
2022/07/26 02:56:18;;;;;;;;;;;;;;;;;;5053525;28;1411;-76
2022/07/26 02:58:45;;;;;;;;;;;;;;;;;;5051810;28;1460;-76
2022/07/26 03:01:11;;;;;;;;;;;;;;;;;;5053475;28;1119;-75
2022/07/26 03:03:37;;;;;;;;;;;;;;;;;;5051792;28;1914;-76
2022/07/26 03:06:05;;;;;;;;;;;;;;;;;;5053254;28;1295;-74
2022/07/26 03:08:31;;;;;;;;;;;;;;;;;;5052179;28;1122;-75
2022/07/26 03:10:58;;;;;;;;;;;;;;;;;;5053201;28;1324;-75
2022/07/26 03:13:24;;;;;;;;;;;;;;;;;;5052476;28;1471;-74
2022/07/26 03:15:51;;;;;;;;;;;;;;;;;;5052881;28;1300;-75
2022/07/26 03:18:17;;;;;;;;;;;;;;;;;;5052958;28;953;-75
2022/07/26 03:20:43;;;;;;;;;;;;;;;;;;5052906;28;791;-75
2022/07/26 03:23:11;;;;;;;;;;;;;;;;;;5052738;28;1008;-76
2022/07/26 03:25:37;;;;;;;;;;;;;;;;;;5051650;28;1938;-76
2022/07/26 03:28:03;;;;;;;;;;;;;;;;;;5051645;28;782;-75
2022/07/26 03:30:29;;;;;;;;;;;;;;;;;;5052814;28;893;-75
2022/07/26 03:32:55;;;;;;;;;;;;;;;;;;5052536;28;860;-75
2022/07/26 03:35:22;;;;;;;;;;;;;;;;;;5052536;28;1422;-75
2022/07/26 03:37:48;;;;;;;;;;;;;;;;;;5052506;28;1102;-75
2022/07/26 03:40:16;;;;;;;;;;;;;;;;;;5052686;28;893;-75
2022/07/26 03:42:42;;;;;;;;;;;;;;;;;;5052290;28;1119;-73
2022/07/26 03:45:09;;;;;;;;;;;;;;;;;;5050084;28;1918;-75
2022/07/26 03:47:36;;;;;;;;;;;;;;;;;;5052662;28;1114;-75
2022/07/26 03:50:02;;;;;;;;;;;;;;;;;;5052438;28;1130;-75
2022/07/26 03:52:28;;;;;;;;;;;;;;;;;;5050557;28;1411;-74
2022/07/26 03:54:54;;;;;;;;;;;;;;;;;;5050069;28;1413;-75
2022/07/26 03:57:21;;;;;;;;;;;;;;;;;;5050923;28;1521;-75
2022/07/26 03:59:47;;;;;;;;;;;;;;;;;;5052429;28;1209;-75
2022/07/26 04:02:13;;;;;;;;;;;;;;;;;;5051955;28;881;-75
2022/07/26 04:04:39;;;;;;;;;;;;;;;;;;5049102;28;1924;-75
2022/07/26 04:07:06;;;;;;;;;;;;;;;;;;5051205;28;1343;-74
2022/07/26 04:09:32;;;;;;;;;;;;;;;;;;5052061;28;1154;-75
2022/07/26 04:11:58;;;;;;;;;;;;;;;;;;5051624;28;960;-74
2022/07/26 04:14:26;;;;;;;;;;;;;;;;;;5051919;28;1305;-75
2022/07/26 04:16:52;;;;;;;;;;;;;;;;;;5050482;28;1437;-76
2022/07/26 04:19:18;;;;;;;;;;;;;;;;;;5051846;28;1229;-75
2022/07/26 04:21:44;;;;;;;;;;;;;;;;;;5048270;28;1474;-75
2022/07/26 04:24:10;;;;;;;;;;;;;;;;;;5049983;28;1914;-75
2022/07/26 04:26:37;;;;;;;;;;;;;;;;;;5051641;28;1341;-75
2022/07/26 04:29:03;;;;;;;;;;;;;;;;;;5051661;28;873;-76
2022/07/26 04:31:30;;;;;;;;;;;;;;;;;;5050297;28;1203;-76
2022/07/26 04:33:57;;;;;;;;;;;;;;;;;;5051623;28;897;-74
2022/07/26 04:36:23;;;;;;;;;;;;;;;;;;5051361;28;1431;-75
2022/07/26 04:38:49;;;;;;;;;;;;;;;;;;5044246;28;1246;-76
2022/07/26 04:41:15;;;;;;;;;;;;;;;;;;5044597;28;1402;-75
2022/07/26 04:43:41;;;;;;;;;;;;;;;;;;5035697;28;1242;-76
2022/07/26 04:46:07;;;;;;;;;;;;;;;;;;5030980;28;1969;-74
2022/07/26 04:48:35;;;;;;;;;;;;;;;;;;5031216;28;1111;-76
2022/07/26 04:51:01;;;;;;;;;;;;;;;;;;5039133;28;1307;-74
2022/07/26 04:53:28;;;;;;;;;;;;;;;;;;5033610;28;1259;-75
2022/07/26 04:55:54;;;;;;;;;;;;;;;;;;5030896;28;1298;-74
2022/07/26 04:58:20;;;;;;;;;;;;;;;;;;5031357;28;1084;-74
2022/07/26 05:00:46;;;;;;;;;;;;;;;;;;5038582;28;1301;-78
2022/07/26 05:03:12;;;;;;;;;;;;;;;;;;5039528;28;1246;-74
2022/07/26 05:05:40;;;;;;;;;;;;;;;;;;5055392;28;1977;-74
2022/07/26 05:08:06;;;;;;;;;;;;;;;;;;5056836;28;1297;-74
2022/07/26 05:10:34;;;;;;;;;;;;;;;;;;5039803;28;1314;-74
2022/07/26 05:13:01;;;;;;;;;;;;;;;;;;5041375;28;1322;-74
2022/07/26 05:15:27;;;;;;;;;;;;;;;;;;5043583;28;1403;-74
2022/07/26 05:17:55;;;;;;;;;;;;;;;;;;5050517;28;889;-74
2022/07/26 05:20:22;;;;;;;;;;;;;;;;;;5050613;28;1063;-74
2022/07/26 05:22:49;;;;;;;;;;;;;;;;;;5065263;28;1483;-74
2022/07/26 05:25:15;;;;;;;;;;;;;;;;;;5049281;28;1985;-74
2022/07/26 05:27:41;;;;;;;;;;;;;;;;;;5050693;28;1075;-74
2022/07/26 05:30:09;;;;;;;;;;;;;;;;;;5050731;28;805;-74
2022/07/26 05:32:35;;;;;;;;;;;;;;;;;;5048942;28;1335;-75
2022/07/26 05:35:01;;;;;;;;;;;;;;;;;;5050620;28;1317;-74
2022/07/26 05:37:27;;;;;;;;;;;;;;;;;;5050446;28;848;-74
2022/07/26 05:39:55;;;;;;;;;;;;;;;;;;5039364;28;2032;-74
2022/07/26 05:42:21;;;;;;;;;;;;;;;;;;5036930;28;1540;-74
2022/07/26 05:44:47;;;;;;;;;;;;;;;;;;5047479;28;1914;-75
2022/07/26 05:47:13;;;;;;;;;;;;;;;;;;5042134;28;1617;-76
2022/07/26 05:49:40;;;;;;;;;;;;;;;;;;5045171;28;1145;-75
2022/07/26 05:52:06;;;;;;;;;;;;;;;;;;5049653;28;1165;-75
2022/07/26 05:54:32;;;;;;;;;;;;;;;;;;5045866;28;1703;-75
2022/07/26 05:56:59;;;;;;;;;;;;;;;;;;5046587;28;1544;-75
2022/07/26 05:59:26;;;;;;;;;;;;;;;;;;5049808;28;1095;-75
2022/07/26 06:01:55;;;;;;;;;;;;;;;;;;5045670;28;1142;-75
2022/07/26 06:04:21;;;;;;;;;;;;;;;;;;5048711;28;1914;-75
2022/07/26 06:06:47;;;;;;;;;;;;;;;;;;5049928;28;1023;-75
2022/07/26 06:09:13;;;;;;;;;;;;;;;;;;5052638;28;1125;-75
2022/07/26 06:11:39;;;;;;;;;;;;;;;;;;5068491;28;1319;-75
2022/07/26 06:14:07;;;;;;;;;;;;;;;;;;5053933;28;810;-76
2022/07/26 06:16:33;;;;;;;;;;;;;;;;;;5053358;28;1254;-76
2022/07/26 06:18:59;;;;;;;;;;;;;;;;;;5052289;28;1312;-76
2022/07/26 06:21:25;;;;;;;;;;;;;;;;;;5051910;28;1347;-75
2022/07/26 06:23:52;;;;;;;;;;;;;;;;;;5052442;28;1287;-75
2022/07/26 06:26:18;;;;;;;;;;;;;;;;;;5053304;28;1983;-75
2022/07/26 06:28:44;;;;;;;;;;;;;;;;;;5053597;28;1154;-74
2022/07/26 06:31:12;;;;;;;;;;;;;;;;;;5053409;28;827;-74
2022/07/26 06:33:38;;;;;;;;;;;;;;;;;;5051918;28;1901;-74
2022/07/26 06:36:04;;;;;;;;;;;;;;;;;;5052589;28;1502;-74
2022/07/26 06:38:31;;;;;;;;;;;;;;;;;;5050334;28;1114;-74
2022/07/26 06:40:57;;;;;;;;;;;;;;;;;;5052966;28;1146;-73
2022/07/26 06:43:23;;;;;;;;;;;;;;;;;;5052797;28;1023;-75
2022/07/26 06:45:49;;;;;;;;;;;;;;;;;;5052915;28;1965;-75
2022/07/26 06:48:17;;;;;;;;;;;;;;;;;;5053095;28;1082;-75
2022/07/26 06:50:43;;;;;;;;;;;;;;;;;;5051728;28;953;-75
2022/07/26 06:53:09;;;;;;;;;;;;;;;;;;5051786;28;1553;-77
2022/07/26 06:55:35;;;;;;;;;;;;;;;;;;5050798;28;1478;-77
2022/07/26 06:58:02;;;;;;;;;;;;;;;;;;5047582;28;1449;-76
2022/07/26 07:00:28;;;;;;;;;;;;;;;;;;5053048;28;1130;-75
2022/07/26 07:02:54;;;;;;;;;;;;;;;;;;5052294;28;1157;-75
2022/07/26 07:05:21;;;;;;;;;;;;;;;;;;5051302;28;1906;-75
2022/07/26 07:07:48;;;;;;;;;;;;;;;;;;5052773;28;1066;-75
2022/07/26 07:10:14;;;;;;;;;;;;;;;;;;5051448;28;1097;-76
2022/07/26 07:12:42;;;;;;;;;;;;;;;;;;5052031;28;1125;-76
2022/07/26 07:15:08;;;;;;;;;;;;;;;;;;5052241;28;1361;-76
2022/07/26 07:17:35;;;;;;;;;;;;;;;;;;5051512;28;1530;-75
2022/07/26 07:20:03;;;;;;;;;;;;;;;;;;5052333;28;1483;-77
2022/07/26 07:22:30;;;;;;;;;;;;;;;;;;5050804;28;1067;-78
2022/07/26 07:24:57;;;;;;;;;;;;;;;;;;5052269;28;1914;-76
2022/07/26 07:27:23;;;;;;;;;;;;;;;;;;5052242;28;1070;-76
2022/07/26 07:29:49;;;;;;;;;;;;;;;;;;5052246;28;1075;-77
2022/07/26 07:32:15;;;;;;;;;;;;;;;;;;5051864;28;924;-77
2022/07/26 07:34:41;;;;;;;;;;;;;;;;;;5050695;28;1338;-76
2022/07/26 07:37:07;;;;;;;;;;;;;;;;;;5051885;28;1059;-77
2022/07/26 07:39:35;;;;;;;;;;;;;;;;;;5052114;28;782;-77
2022/07/26 07:42:01;;;;;;;;;;;;;;;;;;5052037;28;949;-77
2022/07/26 07:44:27;;;;;;;;;;;;;;;;;;5051977;28;1375;-77
2022/07/26 07:46:54;;;;;;;;;;;;;;;;;;5050714;28;1922;-77
2022/07/26 07:49:21;;;;;;;;;;;;;;;;;;5050827;28;1175;-77
2022/07/26 07:51:47;;;;;;;;;;;;;;;;;;5050176;28;1373;-77
2022/07/26 07:54:14;;;;;;;;;;;;;;;;;;5050752;28;1179;-76
2022/07/26 07:56:42;;;;;;;;;;;;;;;;;;5051657;28;1313;-76
2022/07/26 07:59:08;;;;;;;;;;;;;;;;;;5051893;28;1075;-77
2022/07/26 08:01:34;;;;;;;;;;;;;;;;;;5050101;28;1245;-77
2022/07/26 08:04:00;;;;;;;;;;;;;;;;;;5051909;28;1238;-76
2022/07/26 08:06:27;;;;;;;;;;;;;;;;;;5050090;28;1996;-76
2022/07/26 08:08:53;;;;;;;;;;;;;;;;;;5050266;28;1297;-77
2022/07/26 08:11:19;;;;;;;;;;;;;;;;;;5051208;28;901;-77
2022/07/26 08:13:46;;;;;;;;;;;;;;;;;;5051340;28;1122;-76
2022/07/26 08:16:13;;;;;;;;;;;;;;;;;;5049538;28;1711;-76
2022/07/26 08:18:39;;;;;;;;;;;;;;;;;;5050928;28;1119;-77
2022/07/26 08:21:05;;;;;;;;;;;;;;;;;;5050081;28;1338;-78
2022/07/26 08:23:31;;;;;;;;;;;;;;;;;;5050902;28;869;-76
2022/07/26 08:25:58;;;;;;;;;;;;;;;;;;5050614;28;1902;-76
2022/07/26 08:28:24;;;;;;;;;;;;;;;;;;5049922;28;1365;-77
2022/07/26 08:30:52;;;;;;;;;;;;;;;;;;5049374;28;1298;-76
2022/07/26 08:33:18;;;;;;;;;;;;;;;;;;5050825;28;822;-75
2022/07/26 08:35:44;;;;;;;;;;;;;;;;;;5050819;28;1350;-75
2022/07/26 08:38:10;;;;;;;;;;;;;;;;;;5051074;28;850;-76
2022/07/26 08:40:37;;;;;;;;;;;;;;;;;;5050850;28;1086;-76
2022/07/26 08:43:03;;;;;;;;;;;;;;;;;;5050639;28;1064;-77
2022/07/26 08:45:30;;;;;;;;;;;;;;;;;;5050522;28;1980;-76
2022/07/26 08:47:58;;;;;;;;;;;;;;;;;;5050836;28;853;-76
2022/07/26 08:50:24;;;;;;;;;;;;;;;;;;5050780;28;1067;-75
2022/07/26 08:52:51;;;;;;;;;;;;;;;;;;5050427;28;1059;-75
2022/07/26 08:55:17;;;;;;;;;;;;;;;;;;5050884;28;1314;-76
2022/07/26 08:57:43;;;;;;;;;;;;;;;;;;5050764;28;1121;-76
2022/07/26 09:00:17;;;;;;;;;;;;;;;;;;5050817;28;885;-77
2022/07/26 09:02:44;;;;;;;;;;;;;;;;;;5051741;28;1148;-76
2022/07/26 09:05:11;;;;;;;;;;;;;;;;;;5050510;28;2428;-76
2022/07/26 09:07:38;;;;;;;;;;;;;;;;;;5051777;28;1922;-77
2022/07/26 09:10:06;;;;;;;;;;;;;;;;;;5051648;28;1161;-76
2022/07/26 09:12:32;;;;;;;;;;;;;;;;;;5051725;28;952;-76
2022/07/26 09:14:59;;;;;;;;;;;;;;;;;;5049782;28;1487;-75
2022/07/26 09:17:37;;;;;;;;;;;;;;;;;;5050654;28;1136;-76
2022/07/26 09:20:05;;;;;;;;;;;;;;;;;;5052166;28;685;-76
2022/07/26 09:22:33;;;;;;;;;;;;;;;;;;5050012;28;1377;-76
2022/07/26 09:24:59;;;;;;;;;;;;;;;;;;5051823;28;1301;-76
2022/07/26 09:27:25;;;;;;;;;;;;;;;;;;5051799;28;1977;-77
2022/07/26 09:29:52;;;;;;;;;;;;;;;;;;5050547;28;1514;-76
2022/07/26 09:32:19;;;;;;;;;;;;;;;;;;5051360;28;1000;-76
2022/07/26 09:34:46;;;;;;;;;;;;;;;;;;5051566;28;1314;-76
2022/07/26 09:37:12;;;;;;;;;;;;;;;;;;5051928;28;688;-76
2022/07/26 09:40:02;;;;;;;;;;;;;;;;;;5051683;28;794;-77
2022/07/26 09:42:30;;;;;;;;;;;;;;;;;;5035097;28;1024;-75
2022/07/26 09:44:56;;;;;;;;;;;;;;;;;;5055372;28;1314;-77
2022/07/26 09:47:23;;;;;;;;;;;;;;;;;;5055793;28;1918;-75
2022/07/26 09:49:49;;;;;;;;;;;;;;;;;;5053797;28;2098;-75
2022/07/26 09:52:17;;;;;;;;;;;;;;;;;;5054150;28;1763;-75
2022/07/26 09:54:45;;;;;;;;;;;;;;;;;;5053156;28;2217;-76
2022/07/26 09:57:11;;;;;;;;;;;;;;;;;;5053801;28;2048;-76
2022/07/26 09:59:39;;;;;;;;;;;;;;;;;;5053576;28;1682;-76
2022/07/26 10:02:06;;;;;;;;;;;;;;;;;;5054951;28;1074;-77
2022/07/26 10:04:32;;;;;;;;;;;;;;;;;;5055170;28;1318;-76
2022/07/26 10:07:00;;;;;;;;;;;;;;;;;;5049299;28;1979;-75
2022/07/26 10:09:28;;;;;;;;;;;;;;;;;;5046716;28;1312;-76
2022/07/26 10:11:55;;;;;;;;;;;;;;;;;;5044177;28;1235;-77
2022/07/26 10:14:36;;;;;;;;;;;;;;;;;;5044311;28;1388;-76
2022/07/26 10:17:18;;;;;;;;;;;;;;;;;;5045244;28;1294;-74
2022/07/26 10:19:45;;;;;;;;;;;;;;;;;;5045354;28;1710;-75
2022/07/26 10:22:24;;;;;;;;;;;;;;;;;;5048036;28;1310;-76
2022/07/26 10:24:50;;;;;;;;;;;;;;;;;;5044059;28;1409;-75
2022/07/26 10:27:31;;;;;;;;;;;;;;;;;;5043433;28;1914;-76
2022/07/26 10:30:12;;;;;;;;;;;;;;;;;;5034664;28;1465;-77
2022/07/26 10:32:38;;;;;;;;;;;;;;;;;;5032365;28;1469;-77
2022/07/26 10:35:19;;;;;;;;;;;;;;;;;;5034622;28;1298;-76
2022/07/26 10:37:58;;;;;;;;;;;;;;;;;;5034205;28;1739;-77
2022/07/26 10:40:28;;;;;;;;;;;;;;;;;;5034976;28;1139;-77
2022/07/26 10:42:57;;;;;;;;;;;;;;;;;;5034553;28;743;-75
2022/07/26 10:45:24;;;;;;;;;;;;;;;;;;5049772;28;1390;-76
2022/07/26 10:48:12;;;;;;;;;;;;;;;;;;5034474;28;1965;-76
2022/07/26 10:50:39;;;;;;;;;;;;;;;;;;5049606;28;1338;-76
2022/07/26 10:53:06;;;;;;;;;;;;;;;;;;5032533;28;1180;-78
2022/07/26 10:55:32;;;;;;;;;;;;;;;;;;5033907;28;1290;-77
2022/07/26 10:57:58;;;;;;;;;;;;;;;;;;5034217;28;2182;-77
2022/07/26 11:00:25;;;;;;;;;;;;;;;;;;5034488;28;1170;-77
2022/07/26 11:02:56;;;;;;;;;;;;;;;;;;5032384;28;1278;-78
2022/07/26 11:05:26;;;;;;;;;;;;;;;;;;5035112;28;1432;-78
2022/07/26 11:07:53;;;;;;;;;;;;;;;;;;5053774;28;1918;-77
2022/07/26 11:10:28;;;;;;;;;;;;;;;;;;5045880;28;917;-76
2022/07/26 11:13:13;;;;;;;;;;;;;;;;;;5033535;28;759;-76
2022/07/26 11:15:40;;;;;;;;;;;;;;;;;;5034286;28;1306;-76
2022/07/26 11:18:10;;;;;;;;;;;;;;;;;;5034062;28;826;-77
2022/07/26 11:20:36;;;;;;;;;;;;;;;;;;5049558;28;1542;-76
2022/07/26 11:23:02;;;;;;;;;;;;;;;;;;5032539;28;1103;-77
2022/07/26 11:25:30;;;;;;;;;;;;;;;;;;5032472;28;1306;-76
2022/07/26 11:28:00;;;;;;;;;;;;;;;;;;5032478;28;1983;-77
2022/07/26 11:30:26;;;;;;;;;;;;;;;;;;5049362;28;1259;-76
2022/07/26 11:32:52;;;;;;;;;;;;;;;;;;5032886;28;1018;-76
2022/07/26 11:35:19;;;;;;;;;;;;;;;;;;5033706;28;1381;-77
2022/07/26 11:37:51;;;;;;;;;;;;;;;;;;5033399;28;1004;-77
2022/07/26 11:40:17;;;;;;;;;;;;;;;;;;5033555;28;1067;-76
2022/07/26 11:42:45;;;;;;;;;;;;;;;;;;5033035;28;775;-76
2022/07/26 11:45:11;;;;;;;;;;;;;;;;;;5033080;28;1295;-76
2022/07/26 11:47:38;;;;;;;;;;;;;;;;;;5031805;28;1910;-76
2022/07/26 11:50:07;;;;;;;;;;;;;;;;;;5032207;28;1069;-76
2022/07/26 11:52:33;;;;;;;;;;;;;;;;;;5030915;28;1233;-77
2022/07/26 11:54:59;;;;;;;;;;;;;;;;;;5031752;28;1471;-76
2022/07/26 11:57:27;;;;;;;;;;;;;;;;;;5032955;28;1075;-77
2022/07/26 11:59:55;;;;;;;;;;;;;;;;;;5032930;28;818;-76
2022/07/26 12:02:21;;;;;;;;;;;;;;;;;;5032525;28;924;-76
2022/07/26 12:04:47;;;;;;;;;;;;;;;;;;5031502;28;1400;-75
2022/07/26 12:07:14;;;;;;;;;;;;;;;;;;5032133;28;1918;-76
2022/07/26 12:09:41;;;;;;;;;;;;;;;;;;5033051;28;1064;-77
2022/07/26 12:12:08;;;;;;;;;;;;;;;;;;5032416;28;1039;-77
2022/07/26 12:14:34;;;;;;;;;;;;;;;;;;5032820;28;1359;-77
2022/07/26 12:17:11;;;;;;;;;;;;;;;;;;5032183;28;1071;-78
2022/07/26 12:19:38;;;;;;;;;;;;;;;;;;5030395;28;893;-77
2022/07/26 12:22:07;;;;;;;;;;;;;;;;;;5031251;28;1068;-77
2022/07/26 12:24:38;;;;;;;;;;;;;;;;;;5032785;28;1304;-77
2022/07/26 12:27:06;;;;;;;;;;;;;;;;;;5031168;28;1969;-76
2022/07/26 12:29:35;;;;;;;;;;;;;;;;;;5032321;28;1103;-76
2022/07/26 12:32:08;;;;;;;;;;;;;;;;;;5032045;28;1146;-76
2022/07/26 12:34:36;;;;;;;;;;;;;;;;;;5031086;28;1337;-76
2022/07/26 12:37:09;;;;;;;;;;;;;;;;;;5032432;28;926;-77
2022/07/26 12:39:36;;;;;;;;;;;;;;;;;;5031539;28;1035;-77
2022/07/26 12:42:17;;;;;;;;;;;;;;;;;;5030556;28;949;-76
2022/07/26 12:44:43;;;;;;;;;;;;;;;;;;5030804;28;1400;-76
2022/07/26 12:47:10;;;;;;;;;;;;;;;;;;5030767;28;1983;-77
2022/07/26 12:49:37;;;;;;;;;;;;;;;;;;5030894;28;1063;-76
2022/07/26 12:52:03;;;;;;;;;;;;;;;;;;5031538;28;793;-76
2022/07/26 12:54:30;;;;;;;;;;;;;;;;;;5032338;28;1319;-75
2022/07/26 12:56:56;;;;;;;;;;;;;;;;;;5030757;28;814;-76
2022/07/26 12:59:22;;;;;;;;;;;;;;;;;;5030728;28;1062;-76
2022/07/26 13:01:48;;;;;;;;;;;;;;;;;;5031054;28;940;-77
2022/07/26 13:04:14;;;;;;;;;;;;;;;;;;5030823;28;1071;-76
2022/07/26 13:06:42;;;;;;;;;;;;;;;;;;5030627;28;1904;-76
2022/07/26 13:09:08;;;;;;;;;;;;;;;;;;5030658;28;936;-76
2022/07/26 13:11:34;;;;;;;;;;;;;;;;;;5039902;28;1526;-77
2022/07/26 13:14:00;;;;;;;;;;;;;;;;;;5050124;28;992;-75
2022/07/26 13:16:27;;;;;;;;;;;;;;;;;;5050017;28;1389;-76
2022/07/26 13:18:53;;;;;;;;;;;;;;;;;;5049854;28;1075;-76
2022/07/26 13:21:19;;;;;;;;;;;;;;;;;;5049930;28;810;-76
2022/07/26 13:23:46;;;;;;;;;;;;;;;;;;5050060;28;1142;-76
2022/07/26 13:26:13;;;;;;;;;;;;;;;;;;5049880;28;1286;-77
2022/07/26 13:28:39;;;;;;;;;;;;;;;;;;5050165;28;1938;-76
2022/07/26 13:31:06;;;;;;;;;;;;;;;;;;5049906;28;1063;-76
2022/07/26 13:33:32;;;;;;;;;;;;;;;;;;5049541;28;829;-77
2022/07/26 13:35:58;;;;;;;;;;;;;;;;;;5049710;28;1391;-77
2022/07/26 13:38:24;;;;;;;;;;;;;;;;;;5050184;28;1072;-76
2022/07/26 13:40:52;;;;;;;;;;;;;;;;;;5048619;28;1287;-78
2022/07/26 13:43:18;;;;;;;;;;;;;;;;;;5049341;28;1123;-76
2022/07/26 13:45:44;;;;;;;;;;;;;;;;;;5049035;28;1339;-76
2022/07/26 13:48:10;;;;;;;;;;;;;;;;;;5049914;28;1971;-76
2022/07/26 13:50:36;;;;;;;;;;;;;;;;;;5049827;28;734;-76
2022/07/26 13:53:03;;;;;;;;;;;;;;;;;;5048697;28;1017;-76
2022/07/26 13:55:29;;;;;;;;;;;;;;;;;;5050019;28;1419;-75
2022/07/26 13:57:56;;;;;;;;;;;;;;;;;;5049666;28;940;-76
2022/07/26 14:00:22;;;;;;;;;;;;;;;;;;5050089;28;1075;-76
2022/07/26 14:02:49;;;;;;;;;;;;;;;;;;5049144;28;935;-76
2022/07/26 14:05:15;;;;;;;;;;;;;;;;;;5049878;28;1356;-76
2022/07/26 14:07:42;;;;;;;;;;;;;;;;;;5049515;28;1911;-77
2022/07/26 14:10:08;;;;;;;;;;;;;;;;;;5049521;28;853;-76
2022/07/26 14:12:36;;;;;;;;;;;;;;;;;;5049132;28;1067;-76
2022/07/26 14:15:03;;;;;;;;;;;;;;;;;;5047237;28;1305;-76
2022/07/26 14:17:30;;;;;;;;;;;;;;;;;;5049399;28;979;-76
2022/07/26 14:19:56;;;;;;;;;;;;;;;;;;5033399;28;1109;-76
2022/07/26 14:22:22;;;;;;;;;;;;;;;;;;5057211;22;3696;-77
2022/07/26 14:24:48;;;;;;;;;;;;;;;;;;5048291;28;1126;-76
2022/07/26 14:27:14;;;;;;;;;;;;;;;;;;5050331;28;1914;-76
2022/07/26 14:29:42;;;;;;;;;;;;;;;;;;5051790;28;811;-77
2022/07/26 14:32:09;;;;;;;;;;;;;;;;;;5051577;28;1407;-77
2022/07/26 14:34:36;;;;;;;;;;;;;;;;;;5053988;28;921;-76
2022/07/26 14:37:02;;;;;;;;;;;;;;;;;;5053559;28;1071;-77
2022/07/26 14:39:28;;;;;;;;;;;;;;;;;;5053699;28;968;-77
2022/07/26 14:41:54;;;;;;;;;;;;;;;;;;5055705;28;1451;-77
2022/07/26 14:44:20;;;;;;;;;;;;;;;;;;5059329;28;1537;-77
2022/07/26 14:46:47;;;;;;;;;;;;;;;;;;5057743;28;1352;-76
2022/07/26 14:49:14;;;;;;;;;;;;;;;;;;5054742;28;1987;-77
2022/07/26 14:51:40;;;;;;;;;;;;;;;;;;5053312;28;1343;-77
2022/07/26 14:54:07;;;;;;;;;;;;;;;;;;5053425;28;1145;-76
2022/07/26 14:56:33;;;;;;;;;;;;;;;;;;5053385;28;731;-76
2022/07/26 14:58:59;;;;;;;;;;;;;;;;;;5053033;28;1122;-76
2022/07/26 15:01:25;;;;;;;;;;;;;;;;;;5053373;28;1326;-76
2022/07/26 15:03:51;;;;;;;;;;;;;;;;;;5068346;28;1302;-77
2022/07/26 15:06:19;;;;;;;;;;;;;;;;;;5051323;28;1878;-76
2022/07/26 15:08:45;;;;;;;;;;;;;;;;;;5051571;28;1958;-76
2022/07/26 15:11:11;;;;;;;;;;;;;;;;;;5052485;28;1418;-76
2022/07/26 15:13:38;;;;;;;;;;;;;;;;;;5052578;28;1110;-76
2022/07/26 15:16:04;;;;;;;;;;;;;;;;;;5052945;28;1047;-76
2022/07/26 15:18:30;;;;;;;;;;;;;;;;;;5053182;28;1051;-76
2022/07/26 15:20:57;;;;;;;;;;;;;;;;;;5052987;28;1338;-75
2022/07/26 15:23:25;;;;;;;;;;;;;;;;;;5052261;28;1063;-76
2022/07/26 15:25:51;;;;;;;;;;;;;;;;;;5053222;28;845;-76
2022/07/26 15:28:17;;;;;;;;;;;;;;;;;;5052736;28;1914;-76
2022/07/26 15:30:43;;;;;;;;;;;;;;;;;;5052559;28;1280;-76
2022/07/26 15:33:10;;;;;;;;;;;;;;;;;;5052345;28;1064;-75
2022/07/26 15:35:38;;;;;;;;;;;;;;;;;;5052652;28;1070;-75
2022/07/26 15:38:05;;;;;;;;;;;;;;;;;;5053369;28;1060;-76
2022/07/26 15:40:32;;;;;;;;;;;;;;;;;;5052774;28;1419;-74
2022/07/26 15:42:59;;;;;;;;;;;;;;;;;;5052295;28;1118;-73
2022/07/26 15:45:25;;;;;;;;;;;;;;;;;;5052344;28;1059;-74
2022/07/26 15:47:51;;;;;;;;;;;;;;;;;;5052534;28;1910;-75
2022/07/26 15:50:17;;;;;;;;;;;;;;;;;;5052452;28;1119;-75
2022/07/26 15:52:44;;;;;;;;;;;;;;;;;;5051506;28;1306;-74
2022/07/26 15:55:11;;;;;;;;;;;;;;;;;;5052339;28;1055;-74
2022/07/26 15:57:38;;;;;;;;;;;;;;;;;;5052378;28;1048;-74
2022/07/26 16:00:06;;;;;;;;;;;;;;;;;;5035880;28;1087;-75
2022/07/26 16:02:33;;;;;;;;;;;;;;;;;;5031578;28;1340;-74
2022/07/26 16:04:59;;;;;;;;;;;;;;;;;;5033091;28;1075;-74
2022/07/26 16:07:25;;;;;;;;;;;;;;;;;;5031800;28;1047;-74
2022/07/26 16:09:51;;;;;;;;;;;;;;;;;;5030833;28;1994;-75
2022/07/26 16:12:17;;;;;;;;;;;;;;;;;;5031833;28;1313;-75
2022/07/26 16:14:45;;;;;;;;;;;;;;;;;;5032089;28;1067;-75
2022/07/26 16:17:11;;;;;;;;;;;;;;;;;;5032539;28;785;-75
2022/07/26 16:19:37;;;;;;;;;;;;;;;;;;5032039;28;1628;-75
2022/07/26 16:22:04;;;;;;;;;;;;;;;;;;5031133;28;1316;-75
2022/07/26 16:24:30;;;;;;;;;;;;;;;;;;5031215;28;769;-74
2022/07/26 16:26:56;;;;;;;;;;;;;;;;;;5031191;28;1076;-75
2022/07/26 16:29:22;;;;;;;;;;;;;;;;;;5046812;28;1983;-74
2022/07/26 16:31:50;;;;;;;;;;;;;;;;;;5044659;28;1417;-75
2022/07/26 16:34:16;;;;;;;;;;;;;;;;;;5071395;28;1312;-75
2022/07/26 16:36:42;;;;;;;;;;;;;;;;;;5071614;28;857;-75
2022/07/26 16:39:09;;;;;;;;;;;;;;;;;;5071509;28;1074;-75
2022/07/26 16:41:35;;;;;;;;;;;;;;;;;;5069674;28;1341;-75
2022/07/26 16:44:01;;;;;;;;;;;;;;;;;;5069758;28;1380;-75
2022/07/26 16:46:27;;;;;;;;;;;;;;;;;;5071253;28;1118;-74
2022/07/26 16:48:55;;;;;;;;;;;;;;;;;;5071303;28;1890;-75
2022/07/26 16:51:21;;;;;;;;;;;;;;;;;;5070635;28;1327;-74
2022/07/26 16:53:50;;;;;;;;;;;;;;;;;;5070554;28;917;-75
2022/07/26 16:56:16;;;;;;;;;;;;;;;;;;5071048;28;1114;-74
2022/07/26 16:58:42;;;;;;;;;;;;;;;;;;5071459;28;979;-74
2022/07/26 17:01:08;;;;;;;;;;;;;;;;;;5070806;28;1324;-74
2022/07/26 17:03:34;;;;;;;;;;;;;;;;;;5086017;28;1465;-75
2022/07/26 17:06:04;;;;;;;;;;;;;;;;;;5071208;28;1136;-74